Terminal Aerodrome Forecast
Issued by NWS Sterling, VA

Current Version | Previous Version | Graphics & Text | Print | Product List | Glossary On
Versions: 1 2 3 4 5 6 7 8 9 10 11 12 13 14 15 16 17 18 19 20 21 22 23 24
000
FTUS41 KLWX 230833 AAA
TAFIAD
TAF AMD
KIAD 230833Z 2309/2412 16008KT 6SM -SHRA OVC015 WS020/20040KT
     FM231000 19010G18KT 3SM -SHRA BKN008 OVC015 WS020/20045KT
     FM231500 22012G21KT P6SM BKN025 OVC050
     FM231700 25014G26KT P6SM SCT050
     FM240500 29007KT P6SM SCT035=

USA.gov is the U.S. government's official web portal to all federal, state and local government web resources and services.